Time;durP1;ratioP1;P1;durP2;ratioP2;P2;SDS_P1;SDS_P2;PMS_P1;PMS_P2;Temp;Humidity;BMP_temperature;BMP_pressure;BME280_temperature;BME280_humidity;BME280_pressure;Samples;Min_cycle;Max_cycle;Signal;HPM_P1;HPM_P2
2022/09/05 00:00:03;;;;;;;3.10;2.70;;;;;;;26.03;44.73;100113.59;4135194;28;20241;-67
2022/09/05 00:02:05;;;;;;;3.35;2.92;;;;;;;25.05;46.39;100120.28;4133651;28;20607;-69
2022/09/05 00:04:14;;;;;;;4.13;2.85;;;;;;;25.04;46.93;100109.63;4136858;28;20226;-66
2022/09/05 00:06:36;;;;;;;4.57;3.03;;;;;;;25.51;46.16;100092.97;4139878;28;20714;-67
2022/09/05 00:08:56;;;;;;;5.18;3.10;;;;;;;24.96;46.61;100115.47;4132859;28;20295;-66
2022/09/05 00:11:15;;;;;;;4.72;3.13;;;;;;;25.44;46.22;100107.81;4142249;28;20237;-67
2022/09/05 00:13:42;;;;;;;3.20;2.88;;;;;;;25.07;46.81;100111.03;4139565;28;20257;-67
2022/09/05 00:16:03;;;;;;;5.27;2.80;;;;;;;24.97;47.04;100107.09;4141280;28;20237;-68
2022/09/05 00:18:23;;;;;;;5.25;2.67;;;;;;;25.34;46.34;100101.13;4126749;28;20258;-67
2022/09/05 00:21:04;;;;;;;6.78;2.63;;;;;;;24.87;47.23;100106.91;4138556;28;20256;-67
2022/09/05 00:23:56;;;;;;;3.25;2.95;;;;;;;26.05;44.56;100108.69;4137225;28;20324;-68
2022/09/05 00:26:24;;;;;;;3.97;3.05;;;;;;;25.77;45.23;100115.94;4128030;28;20332;-67
2022/09/05 00:28:48;;;;;;;4.22;2.78;;;;;;;24.94;47.06;100121.16;4134302;28;20230;-67
2022/09/05 00:31:17;;;;;;;8.52;2.88;;;;;;;25.94;45.21;100082.41;4137676;28;20288;-67
2022/09/05 00:33:57;;;;;;;3.63;3.03;;;;;;;25.13;46.65;100082.84;4137692;28;20662;-68
2022/09/05 00:36:40;;;;;;;4.55;3.70;;;;;;;25.41;45.90;100071.88;4141777;28;20240;-68
2022/09/05 00:38:53;;;;;;;4.28;3.25;;;;;;;24.81;47.13;100067.91;4136910;28;20241;-67
2022/09/05 00:41:03;;;;;;;3.53;3.10;;;;;;;24.65;46.69;100082.31;4130527;28;22629;-68
2022/09/05 00:43:11;;;;;;;3.30;2.72;;;;;;;24.30;47.70;100073.22;4136456;28;20745;-68
2022/09/05 00:45:23;;;;;;;4.90;3.00;;;;;;;24.46;47.35;100058.03;4138319;28;20316;-68
2022/09/05 00:47:30;;;;;;;3.80;2.88;;;;;;;24.82;47.01;100064.13;4143691;28;20264;-68
2022/09/05 00:49:39;;;;;;;3.50;3.20;;;;;;;24.99;46.49;100068.75;4132869;28;20297;-68
2022/09/05 00:51:56;;;;;;;3.97;3.30;;;;;;;25.11;46.52;100080.38;4134081;28;20248;-67
2022/09/05 00:54:01;;;;;;;3.97;2.90;;;;;;;24.96;46.41;100085.56;4136901;28;20237;-68
2022/09/05 00:56:20;;;;;;;4.40;3.00;;;;;;;25.22;46.35;100075.91;4135751;28;20225;-68
2022/09/05 00:59:01;;;;;;;4.57;3.20;;;;;;;25.46;45.82;100078.44;4138222;28;20316;-68
2022/09/05 01:01:21;;;;;;;3.50;3.20;;;;;;;25.47;45.52;100086.38;4139215;28;20284;-68
2022/09/05 01:03:50;;;;;;;3.63;3.30;;;;;;;25.90;45.16;100081.25;4139408;28;20687;-69
2022/09/05 01:06:25;;;;;;;4.17;3.23;;;;;;;25.05;46.34;100092.22;4141657;28;20233;-68
2022/09/05 01:09:05;;;;;;;6.50;3.50;;;;;;;25.23;45.79;100086.53;4136652;28;20226;-68
2022/09/05 01:11:34;;;;;;;4.70;3.60;;;;;;;25.29;45.97;100073.00;4132814;28;20232;-68
2022/09/05 01:13:53;;;;;;;4.73;3.47;;;;;;;25.38;45.64;100098.78;4135709;28;20800;-68
2022/09/05 01:16:32;;;;;;;5.53;3.40;;;;;;;25.30;45.52;100093.72;4137277;28;20225;-68
2022/09/05 01:18:52;;;;;;;5.57;3.20;;;;;;;25.17;45.68;100100.31;4136510;28;20609;-67
2022/09/05 01:21:01;;;;;;;4.00;3.43;;;;;;;25.43;45.28;100101.56;4140063;28;20229;-68
2022/09/05 01:23:38;;;;;;;4.00;3.40;;;;;;;25.03;46.19;100102.53;4129612;28;20236;-67
2022/09/05 01:26:09;;;;;;;4.30;3.53;;;;;;;25.04;46.04;100101.47;4140331;28;20240;-67
2022/09/05 01:28:34;;;;;;;4.10;3.70;;;;;;;24.65;46.54;100104.88;4139391;28;20685;-67
2022/09/05 01:31:10;;;;;;;4.93;3.63;;;;;;;24.50;47.08;100099.16;4137304;28;20315;-67
2022/09/05 01:33:37;;;;;;;6.40;3.70;;;;;;;24.12;47.77;100104.06;4136214;28;20225;-68
2022/09/05 01:36:08;;;;;;;4.70;3.80;;;;;;;24.24;47.59;100082.34;4139365;28;20597;-70
2022/09/05 01:38:39;;;;;;;7.30;4.47;;;;;;;24.06;47.54;100093.38;4131326;28;20283;-67
2022/09/05 01:41:27;;;;;;;5.50;4.27;;;;;;;24.31;47.42;100066.72;4126311;28;20701;-67
2022/09/05 01:43:34;;;;;;;8.07;4.10;;;;;;;24.02;47.75;100084.03;4138993;28;20360;-68
2022/09/05 01:45:59;;;;;;;6.67;4.40;;;;;;;23.95;48.06;100070.59;4139122;28;20228;-68
2022/09/05 01:48:05;;;;;;;7.10;4.40;;;;;;;23.16;49.24;100082.66;4133885;28;20300;-68
2022/09/05 01:50:41;;;;;;;5.93;4.23;;;;;;;22.59;51.11;100053.31;4141491;28;20233;-67
2022/09/05 01:53:09;;;;;;;6.17;4.10;;;;;;;23.14;49.67;100038.69;4140504;28;20225;-67
2022/09/05 01:55:41;;;;;;;4.20;3.83;;;;;;;22.97;49.96;100048.59;4141039;28;20239;-68
2022/09/05 01:58:35;;;;;;;5.27;4.33;;;;;;;22.82;50.31;100049.81;4136388;28;20820;-66
2022/09/05 02:00:54;;;;;;;7.07;4.33;;;;;;;22.96;49.86;100049.63;4140940;28;20659;-67
2022/09/05 02:03:41;;;;;;;11.07;5.00;;;;;;;22.69;50.57;100035.66;4139272;28;20256;-67
2022/09/05 02:06:20;;;;;;;4.50;4.10;;;;;;;22.93;49.84;100034.69;4134497;28;20237;-69
2022/09/05 02:08:43;;;;;;;5.10;4.30;;;;;;;22.75;50.25;100032.84;4138216;28;20288;-67
2022/09/05 02:10:56;;;;;;;5.73;5.00;;;;;;;21.72;52.73;100035.47;4138410;28;20225;-67
2022/09/05 02:13:13;;;;;;;6.40;4.77;;;;;;;21.86;51.86;100055.06;4131735;28;20240;-67
2022/09/05 02:15:24;;;;;;;7.03;4.63;;;;;;;22.33;51.42;100032.84;4136947;28;20280;-67
2022/09/05 02:17:40;;;;;;;7.07;4.50;;;;;;;22.30;51.03;100060.38;4131902;28;20238;-68
2022/09/05 02:20:00;;;;;;;8.30;4.43;;;;;;;23.11;49.64;100028.28;4128047;28;20233;-68
2022/09/05 02:22:05;;;;;;;5.70;5.10;;;;;;;22.50;50.69;100062.81;4120959;28;20649;-68
2022/09/05 02:24:22;;;;;;;6.20;4.33;;;;;;;23.43;48.91;100040.69;4129561;28;20710;-67
2022/09/05 02:26:31;;;;;;;5.13;4.40;;;;;;;23.68;48.57;100048.59;4136326;28;20295;-68
2022/09/05 02:28:47;;;;;;;5.83;4.50;;;;;;;23.38;48.97;100047.66;4137376;28;20279;-68
2022/09/05 02:30:54;;;;;;;5.43;4.40;;;;;;;23.41;48.43;100084.34;4138992;28;20663;-68
2022/09/05 02:33:44;;;;;;;9.50;4.80;;;;;;;23.77;48.21;100085.16;4132827;28;20253;-68
2022/09/05 02:35:50;;;;;;;4.30;3.90;;;;;;;23.44;48.66;100086.59;4134660;28;20287;-68
2022/09/05 02:38:04;;;;;;;4.27;3.83;;;;;;;23.29;48.77;100100.59;4129794;28;20238;-68
2022/09/05 02:40:35;;;;;;;5.67;4.20;;;;;;;23.44;48.41;100088.47;4129142;28;20322;-68
2022/09/05 02:43:21;;;;;;;4.43;4.03;;;;;;;22.09;51.31;100075.22;4137666;28;20252;-68
2022/09/05 02:46:11;;;;;;;6.93;4.40;;;;;;;22.95;49.81;100046.09;4137296;28;20264;-68
2022/09/05 02:48:22;;;;;;;3.87;3.47;;;;;;;23.25;48.87;100066.03;4134982;28;20745;-68
2022/09/05 02:50:42;;;;;;;4.60;4.20;;;;;;;22.77;49.15;100098.47;4128936;28;20777;-68
2022/09/05 02:53:09;;;;;;;4.37;3.83;;;;;;;22.80;49.07;100108.88;4142775;28;20790;-68
2022/09/05 02:56:21;;;;;;;5.53;4.10;;;;;;;23.30;49.05;100075.16;4136133;28;20247;-68
2022/09/05 02:58:58;;;;;;;6.93;4.60;;;;;;;23.62;48.39;100053.09;4135541;28;20284;-67
2022/09/05 03:01:26;;;;;;;4.87;4.23;;;;;;;23.39;48.59;100075.59;4137820;28;20236;-68
2022/09/05 03:03:53;;;;;;;5.67;3.87;;;;;;;23.94;47.42;100074.41;4126986;28;20234;-68
2022/09/05 03:06:03;;;;;;;5.50;4.20;;;;;;;24.19;46.90;100084.94;4135998;28;20275;-68
2022/09/05 03:08:10;;;;;;;6.23;3.60;;;;;;;24.24;47.00;100095.09;4136952;28;20706;-68
2022/09/05 03:10:43;;;;;;;4.70;3.67;;;;;;;24.07;47.29;100101.25;4136284;28;20232;-67
2022/09/05 03:13:19;;;;;;;7.27;4.03;;;;;;;24.31;46.79;100102.06;4135612;28;20324;-68
2022/09/05 03:15:39;;;;;;;4.30;3.90;;;;;;;24.12;47.03;100119.56;4134034;28;20913;-68
2022/09/05 03:18:13;;;;;;;7.60;4.40;;;;;;;24.16;47.02;100107.16;4130631;28;20949;-68
2022/09/05 03:20:37;;;;;;;6.50;4.00;;;;;;;23.91;47.51;100111.00;4122951;28;20248;-68
2022/09/05 03:22:41;;;;;;;4.60;3.77;;;;;;;23.39;48.11;100129.88;4135121;28;20392;-67
2022/09/05 03:25:11;;;;;;;4.63;4.00;;;;;;;24.37;46.84;100077.69;4125808;28;20722;-68
2022/09/05 03:27:34;;;;;;;4.67;3.87;;;;;;;24.14;46.60;100120.13;4134094;28;20244;-68
2022/09/05 03:29:59;;;;;;;5.53;4.00;;;;;;;23.57;48.01;100131.69;4138541;28;20238;-68
2022/09/05 03:32:01;;;;;;;5.47;4.07;;;;;;;23.55;48.28;100115.66;4135471;28;20837;-68
2022/09/05 03:34:47;;;;;;;4.53;3.77;;;;;;;24.27;46.98;100081.84;4138509;28;20279;-68
2022/09/05 03:37:07;;;;;;;5.93;4.17;;;;;;;24.02;47.25;100092.19;4120461;28;20777;-68
2022/09/05 03:39:32;;;;;;;5.37;4.10;;;;;;;24.28;46.70;100090.84;4116620;28;20250;-72
2022/09/05 03:41:39;;;;;;;5.73;3.87;;;;;;;23.56;47.92;100125.41;4126470;28;20320;-67
2022/09/05 03:43:54;;;;;;;6.20;4.17;;;;;;;23.58;48.60;100079.84;4136394;28;20310;-67
2022/09/05 03:46:17;;;;;;;7.37;4.27;;;;;;;23.94;47.73;100074.41;4139089;28;20283;-68
2022/09/05 03:48:19;;;;;;;4.57;4.10;;;;;;;24.33;46.91;100090.09;4138274;28;20253;-67
2022/09/05 03:50:36;;;;;;;6.53;4.20;;;;;;;23.81;47.48;100112.66;4140521;28;20236;-67
2022/09/05 03:53:04;;;;;;;4.60;4.10;;;;;;;24.65;45.71;100123.06;4135054;28;20325;-68
2022/09/05 03:55:51;;;;;;;7.23;4.90;;;;;;;24.62;46.32;100116.22;4140328;28;20390;-68
2022/09/05 03:58:53;;;;;;;5.30;4.20;;;;;;;24.50;46.01;100126.34;4139983;28;20229;-68
2022/09/05 04:01:16;;;;;;;5.13;4.37;;;;;;;24.95;45.21;100116.53;4141298;28;20228;-67
2022/09/05 04:04:04;;;;;;;5.10;3.80;;;;;;;24.38;46.40;100144.56;4128667;28;20338;-68
2022/09/05 04:06:41;;;;;;;5.80;4.57;;;;;;;24.34;46.05;100144.22;4136323;28;20329;-67
2022/09/05 04:09:11;;;;;;;5.67;3.93;;;;;;;24.80;45.59;100100.78;4138334;28;20256;-68
2022/09/05 04:11:19;;;;;;;4.17;3.77;;;;;;;24.84;45.55;100112.84;4139443;28;20229;-67
2022/09/05 04:13:30;;;;;;;4.30;3.90;;;;;;;24.58;46.17;100130.53;4136641;28;20276;-67
2022/09/05 04:15:40;;;;;;;4.90;3.93;;;;;;;24.38;46.44;100129.09;4140044;28;20271;-68
2022/09/05 04:17:46;;;;;;;5.00;3.90;;;;;;;24.60;46.15;100122.97;4135801;28;20241;-67
2022/09/05 04:20:00;;;;;;;5.63;4.13;;;;;;;24.01;47.47;100117.69;4127301;28;20238;-67
2022/09/05 04:22:12;;;;;;;4.17;3.73;;;;;;;24.25;46.56;100121.22;4135037;28;20229;-68
2022/09/05 04:24:22;;;;;;;8.23;3.97;;;;;;;23.92;47.16;100128.09;4141993;28;20232;-67
2022/09/05 04:26:59;;;;;;;5.73;3.90;;;;;;;24.46;46.21;100106.13;4137761;28;20238;-67
2022/09/05 04:29:25;;;;;;;6.57;4.23;;;;;;;24.42;46.93;100107.69;4098260;28;20270;-68
2022/09/05 04:31:41;;;;;;;4.80;4.23;;;;;;;24.42;46.69;100111.22;4128990;28;20733;-68
2022/09/05 04:34:03;;;;;;;5.07;4.27;;;;;;;24.21;46.79;100126.31;4139864;28;20233;-68
2022/09/05 04:36:16;;;;;;;5.23;4.33;;;;;;;23.89;47.02;100140.28;4138999;28;20596;-68
2022/09/05 04:38:36;;;;;;;4.93;4.43;;;;;;;24.29;47.04;100106.06;4143363;28;20237;-68
2022/09/05 04:40:46;;;;;;;5.57;4.47;;;;;;;24.30;46.86;100119.41;4139308;28;20233;-68
2022/09/05 04:42:50;;;;;;;5.87;4.40;;;;;;;23.73;47.72;100146.44;4138666;28;20701;-68
2022/09/05 04:45:01;;;;;;;5.07;4.23;;;;;;;24.15;47.31;100115.56;4128954;28;20225;-68
2022/09/05 04:47:34;;;;;;;5.63;4.83;;;;;;;24.12;46.86;100123.09;4135811;28;20288;-68
2022/09/05 04:49:42;;;;;;;5.50;4.00;;;;;;;24.25;46.61;100124.75;4137957;28;20316;-68
2022/09/05 04:51:52;;;;;;;5.67;4.50;;;;;;;23.44;48.18;100145.47;4138017;28;20237;-68
2022/09/05 04:54:22;;;;;;;4.67;4.07;;;;;;;23.17;48.70;100141.28;4136149;28;20784;-68
2022/09/05 04:56:36;;;;;;;6.57;4.60;;;;;;;23.91;47.81;100094.69;4137789;28;20237;-68
2022/09/05 04:58:48;;;;;;;8.80;4.57;;;;;;;23.87;47.81;100111.69;4141345;28;20584;-68
2022/09/05 05:01:19;;;;;;;4.90;4.43;;;;;;;23.34;48.39;100141.44;4139160;28;20323;-67
2022/09/05 05:03:43;;;;;;;5.03;4.47;;;;;;;24.24;46.99;100120.38;4142178;28;20335;-68
2022/09/05 05:06:09;;;;;;;5.70;4.10;;;;;;;24.41;46.96;100123.19;4139088;28;20239;-68
2022/09/05 05:08:45;;;;;;;6.17;3.97;;;;;;;24.58;46.37;100134.09;4136342;28;20264;-68
2022/09/05 05:11:00;;;;;;;5.33;4.23;;;;;;;24.25;47.49;100151.94;4131389;28;20221;-68
2022/09/05 05:13:39;;;;;;;6.03;4.33;;;;;;;24.11;47.51;100150.53;4145763;28;20260;-68
2022/09/05 05:16:19;;;;;;;4.90;4.00;;;;;;;24.30;46.61;100164.78;4140457;28;20307;-68
2022/09/05 05:18:47;;;;;;;6.90;3.73;;;;;;;24.28;47.54;100143.28;4133892;28;20466;-67
2022/09/05 05:21:11;;;;;;;8.53;4.10;;;;;;;24.91;46.03;100161.63;4139856;28;20321;-68
2022/09/05 05:23:16;;;;;;;4.23;3.77;;;;;;;25.02;45.84;100168.88;4136785;28;20230;-68
2022/09/05 05:25:18;;;;;;;4.60;4.20;;;;;;;25.11;45.65;100177.50;4141939;28;20485;-68
2022/09/05 05:28:12;;;;;;;4.57;4.17;;;;;;;24.94;45.89;100172.03;4137808;28;20298;-68
2022/09/05 05:30:30;;;;;;;5.20;3.80;;;;;;;25.26;45.41;100198.72;4123900;28;20239;-68
2022/09/05 05:32:54;;;;;;;7.67;4.33;;;;;;;24.96;45.99;100195.19;4136522;28;20302;-68
2022/09/05 05:35:02;;;;;;;6.40;3.90;;;;;;;24.64;46.73;100197.53;4137547;28;21180;-68
2022/09/05 05:37:18;;;;;;;4.00;3.60;;;;;;;24.73;46.56;100192.53;4138137;28;20241;-68
2022/09/05 05:39:24;;;;;;;5.90;4.30;;;;;;;24.52;46.86;100211.16;4142050;28;20702;-68
2022/09/05 05:41:35;;;;;;;4.53;4.03;;;;;;;25.11;46.13;100174.78;4136548;28;20705;-68
2022/09/05 05:43:41;;;;;;;5.20;4.20;;;;;;;25.27;45.98;100181.28;4136757;28;20237;-67
2022/09/05 05:45:57;;;;;;;4.70;4.20;;;;;;;24.40;47.29;100202.22;4134996;28;20335;-67
2022/09/05 05:48:17;;;;;;;5.70;4.23;;;;;;;25.05;46.37;100187.44;4137174;28;20306;-67
2022/09/05 05:51:05;;;;;;;6.47;4.10;;;;;;;24.58;47.27;100184.91;4140513;28;20508;-67
2022/09/05 05:53:43;;;;;;;5.47;3.70;;;;;;;24.96;46.26;100178.03;4074771;28;20235;-67
2022/09/05 05:56:09;;;;;;;4.30;3.90;;;;;;;24.63;47.02;100180.41;4086021;28;20235;-67
2022/09/05 05:58:26;;;;;;;5.67;4.50;;;;;;;24.09;47.98;100201.53;4104365;28;20307;-67
2022/09/05 06:01:47;;;;;;;4.83;4.37;;;;;;;24.85;46.63;100182.47;4139359;28;20236;-67
2022/09/05 06:04:26;;;;;;;6.77;4.40;;;;;;;24.63;47.51;100185.00;4075124;28;20232;-68
2022/09/05 06:06:27;;;;;;;8.57;4.30;;;;;;;24.93;46.60;100184.78;4091687;28;20282;-68
2022/09/05 06:08:40;;;;;;;4.67;3.93;;;;;;;25.05;46.33;100182.84;4103116;28;20260;-68
2022/09/05 06:11:22;;;;;;;5.43;4.17;;;;;;;24.63;46.85;100209.47;4138531;28;20317;-68
2022/09/05 06:13:59;;;;;;;6.87;4.13;;;;;;;24.49;47.40;100203.50;4135292;28;20395;-68
2022/09/05 06:16:54;;;;;;;4.80;4.30;;;;;;;23.86;48.37;100233.06;4136732;28;20265;-68
2022/09/05 06:19:40;;;;;;;5.07;3.60;;;;;;;24.44;47.76;100198.78;4133125;28;21328;-67
2022/09/05 06:22:17;;;;;;;6.73;4.03;;;;;;;24.53;47.33;100206.56;4135945;28;20253;-68
2022/09/05 06:24:23;;;;;;;5.33;4.10;;;;;;;24.42;47.79;100205.53;4137943;28;20309;-68
2022/09/05 06:26:50;;;;;;;4.23;3.80;;;;;;;24.31;48.03;100202.59;4135573;28;20425;-68
2022/09/05 06:29:04;;;;;;;5.77;3.80;;;;;;;24.08;48.87;100187.13;4131470;28;20221;-68
2022/09/05 06:31:27;;;;;;;4.47;3.60;;;;;;;24.07;48.86;100198.22;4130672;28;20240;-68
2022/09/05 06:33:41;;;;;;;6.07;3.83;;;;;;;24.03;48.81;100202.50;4128094;28;20672;-68
2022/09/05 06:35:50;;;;;;;3.97;3.53;;;;;;;24.48;47.68;100180.09;4137331;28;20228;-68
2022/09/05 06:38:38;;;;;;;6.47;4.30;;;;;;;24.92;47.28;100158.66;4135674;28;20226;-68
2022/09/05 06:41:12;;;;;;;4.20;3.80;;;;;;;25.14;46.62;100168.81;4138473;28;20286;-67
2022/09/05 06:43:22;;;;;;;9.20;4.60;;;;;;;24.42;47.45;100216.41;4127116;28;20283;-68
2022/09/05 06:45:34;;;;;;;6.57;3.83;;;;;;;24.41;48.03;100204.72;4137231;28;20296;-67
2022/09/05 06:47:40;;;;;;;4.50;3.63;;;;;;;24.45;48.32;100197.72;4133289;28;20260;-68
2022/09/05 06:50:15;;;;;;;6.77;4.03;;;;;;;25.03;47.08;100178.72;4135937;28;20251;-68
2022/09/05 06:53:00;;;;;;;6.10;4.23;;;;;;;24.92;47.61;100166.00;4133650;28;20268;-68
2022/09/05 06:55:58;;;;;;;4.73;4.20;;;;;;;24.98;47.09;100181.34;4138753;28;20235;-68
2022/09/05 06:58:21;;;;;;;4.67;3.90;;;;;;;25.13;46.77;100203.38;4134980;28;20225;-68
2022/09/05 07:00:35;;;;;;;5.77;4.17;;;;;;;24.82;47.77;100185.69;4132490;28;20398;-68
2022/09/05 07:03:02;;;;;;;5.43;4.30;;;;;;;25.38;46.37;100216.63;4135923;28;20280;-68
2022/09/05 07:05:07;;;;;;;5.17;4.00;;;;;;;25.35;46.11;100238.03;4133324;28;20229;-69
2022/09/05 07:07:42;;;;;;;6.37;3.90;;;;;;;25.72;45.65;100215.81;4139763;28;20260;-68
2022/09/05 07:09:59;;;;;;;4.33;3.70;;;;;;;25.66;45.70;100230.41;4135693;28;20229;-68
2022/09/05 07:12:00;;;;;;;4.60;4.10;;;;;;;25.61;45.77;100247.50;4124551;28;20280;-68
2022/09/05 07:14:14;;;;;;;7.17;4.30;;;;;;;25.24;47.11;100240.59;4138484;28;20260;-68
2022/09/05 07:16:41;;;;;;;6.07;4.70;;;;;;;25.81;45.59;100227.91;4124763;28;20568;-68
2022/09/05 07:19:09;;;;;;;6.00;4.70;;;;;;;25.38;46.09;100249.28;4139017;28;20720;-69
2022/09/05 07:21:20;;;;;;;5.87;4.33;;;;;;;25.76;45.71;100236.00;4143516;28;20237;-67
2022/09/05 07:24:06;;;;;;;5.20;4.70;;;;;;;26.19;44.78;100222.78;4139919;28;20241;-69
2022/09/05 07:26:11;;;;;;;4.93;4.17;;;;;;;25.74;45.66;100265.41;4124654;28;20708;-67
2022/09/05 07:28:35;;;;;;;5.93;4.40;;;;;;;25.58;46.34;100250.72;4141394;28;20340;-67
2022/09/05 07:30:40;;;;;;;6.70;4.40;;;;;;;24.22;49.19;100260.25;4140859;28;20661;-69
2022/09/05 07:32:45;;;;;;;6.33;4.00;;;;;;;25.39;46.93;100241.94;4140903;28;20238;-67
2022/09/05 07:34:51;;;;;;;5.87;4.50;;;;;;;25.43;47.00;100251.28;4136924;28;20283;-69
2022/09/05 07:36:56;;;;;;;4.90;4.17;;;;;;;26.03;45.81;100240.81;4138313;28;20229;-67
2022/09/05 07:39:22;;;;;;;9.13;4.40;;;;;;;25.90;46.58;100250.13;4136536;28;20245;-67
2022/09/05 07:41:33;;;;;;;7.50;4.70;;;;;;;25.97;46.43;100237.19;4139003;28;20233;-67
2022/09/05 07:43:39;;;;;;;6.53;4.80;;;;;;;26.18;46.20;100242.91;4138395;28;20234;-67
2022/09/05 07:45:49;;;;;;;6.20;4.87;;;;;;;25.05;48.80;100231.81;4137761;28;20669;-67
2022/09/05 07:48:07;;;;;;;5.33;4.70;;;;;;;25.58;47.29;100243.38;4135522;28;20229;-67
2022/09/05 07:50:11;;;;;;;5.47;4.50;;;;;;;25.61;48.06;100255.69;4137661;28;20233;-67
2022/09/05 07:52:39;;;;;;;6.40;4.43;;;;;;;26.42;46.01;100229.88;4138667;28;20337;-67
2022/09/05 07:55:20;;;;;;;5.37;4.40;;;;;;;25.39;47.55;100261.00;4138380;28;20257;-67
2022/09/05 07:57:44;;;;;;;9.03;4.93;;;;;;;26.21;46.33;100226.06;4131922;28;20272;-68
2022/09/05 07:59:56;;;;;;;4.73;4.10;;;;;;;25.73;46.77;100233.81;4139862;28;20291;-68
2022/09/05 08:02:00;;;;;;;6.72;4.68;;;;;;;26.20;46.29;100227.97;4142386;28;20237;-68
2022/09/05 08:04:02;;;;;;;6.63;4.63;;;;;;;25.99;46.75;100235.03;4138496;28;20225;-68
2022/09/05 08:06:17;;;;;;;4.43;4.00;;;;;;;26.15;46.09;100236.09;4130772;28;20691;-68
2022/09/05 08:08:49;;;;;;;5.40;4.00;;;;;;;26.87;45.04;100226.06;4127107;28;20265;-68
2022/09/05 08:11:13;;;;;;;4.80;4.30;;;;;;;25.87;46.34;100272.41;4137532;28;20326;-68
2022/09/05 08:13:46;;;;;;;6.50;4.20;;;;;;;26.77;44.79;100251.34;4134569;28;20233;-68
2022/09/05 08:15:53;;;;;;;5.90;4.03;;;;;;;25.52;47.02;100278.91;4138970;28;20439;-68
2022/09/05 08:18:43;;;;;;;5.87;4.27;;;;;;;26.07;46.36;100237.34;4136152;28;20785;-68
2022/09/05 08:21:04;;;;;;;5.47;4.33;;;;;;;25.82;46.45;100264.97;4142699;28;20223;-68
2022/09/05 08:23:05;;;;;;;4.90;4.00;;;;;;;26.87;44.85;100234.25;4136622;28;20715;-68
2022/09/05 08:25:16;;;;;;;6.43;3.78;;;;;;;26.12;46.51;100242.03;4141523;28;20263;-68
2022/09/05 08:27:26;;;;;;;7.40;4.40;;;;;;;25.21;47.42;100265.56;4136781;28;20232;-68
2022/09/05 08:29:42;;;;;;;7.68;3.58;;;;;;;25.50;46.52;100270.19;4140805;28;20241;-68
2022/09/05 08:32:18;;;;;;;5.20;3.67;;;;;;;26.13;46.28;100232.78;4136978;28;20679;-68
2022/09/05 08:34:35;;;;;;;4.80;3.35;;;;;;;25.89;46.42;100248.47;4135376;28;20229;-68
2022/09/05 08:36:50;;;;;;;4.00;3.42;;;;;;;25.99;46.48;100258.72;4139642;28;20272;-69
2022/09/05 08:38:53;;;;;;;6.72;3.60;;;;;;;25.63;46.65;100269.88;4138228;28;20777;-68
2022/09/05 08:41:13;;;;;;;5.35;3.78;;;;;;;26.22;45.63;100244.91;4135525;28;20230;-68
2022/09/05 08:43:23;;;;;;;4.65;3.30;;;;;;;27.13;44.31;100243.56;4139113;28;20307;-68
2022/09/05 08:45:55;;;;;;;4.80;3.30;;;;;;;26.96;45.32;100260.03;4129530;28;20538;-68
2022/09/05 08:48:38;;;;;;;3.80;3.30;;;;;;;25.85;46.12;100277.28;4136079;28;20269;-68
2022/09/05 08:50:56;;;;;;;4.90;3.53;;;;;;;27.62;43.93;100246.22;4137635;28;20229;-68
2022/09/05 08:53:08;;;;;;;4.97;4.47;;;;;;;27.94;42.52;100263.66;4136177;28;20241;-68
2022/09/05 08:55:49;;;;;;;3.90;3.50;;;;;;;27.41;44.03;100316.16;4140071;28;20308;-69
2022/09/05 08:58:03;;;;;;;4.57;3.30;;;;;;;26.56;45.57;100288.44;4142675;28;20657;-66
2022/09/05 09:00:08;;;;;;;5.03;3.40;;;;;;;27.32;43.74;100278.69;4125083;28;20232;-68
2022/09/05 09:02:50;;;;;;;4.13;3.72;;;;;;;27.16;44.32;100278.56;4134796;28;20744;-68
2022/09/05 09:05:08;;;;;;;6.00;3.50;;;;;;;27.27;44.40;100279.47;4137673;28;20264;-66
2022/09/05 09:07:29;;;;;;;6.00;3.80;;;;;;;27.31;44.10;100274.31;4141378;28;20265;-68
2022/09/05 09:09:56;;;;;;;3.70;3.40;;;;;;;27.42;43.69;100284.25;4142721;28;20253;-69
2022/09/05 09:12:16;;;;;;;6.72;4.00;;;;;;;27.87;43.14;100258.44;4139306;28;20291;-68
2022/09/05 09:14:56;;;;;;;4.35;3.95;;;;;;;28.34;42.26;100254.91;4125361;28;20222;-67
2022/09/05 09:17:35;;;;;;;5.43;4.15;;;;;;;27.86;43.20;100273.16;4131098;28;20291;-67
2022/09/05 09:20:08;;;;;;;5.30;4.15;;;;;;;27.59;43.71;100279.47;4135517;28;20777;-66
2022/09/05 09:22:33;;;;;;;6.70;3.88;;;;;;;27.88;43.64;100265.53;4138741;28;20233;-67
2022/09/05 09:24:40;;;;;;;5.53;3.83;;;;;;;27.74;43.92;100264.34;4143213;28;20237;-67
2022/09/05 09:26:58;;;;;;;7.65;4.45;;;;;;;27.52;44.29;100253.50;4137275;28;20233;-68
2022/09/05 09:29:09;;;;;;;6.28;4.05;;;;;;;28.34;42.96;100245.88;4137670;28;20244;-68
2022/09/05 09:31:29;;;;;;;7.20;4.65;;;;;;;28.25;42.42;100261.97;4131044;28;20236;-67
2022/09/05 09:33:55;;;;;;;6.50;4.05;;;;;;;28.68;42.08;100245.47;4137977;28;20317;-68
2022/09/05 09:36:18;;;;;;;4.68;3.70;;;;;;;27.03;45.37;100243.44;4139935;28;20287;-68
2022/09/05 09:38:38;;;;;;;4.22;3.42;;;;;;;27.83;44.21;100221.78;4136168;28;20277;-68
2022/09/05 09:40:59;;;;;;;4.28;3.50;;;;;;;28.10;43.15;100220.84;4128960;28;20291;-68
2022/09/05 09:43:26;;;;;;;5.97;3.38;;;;;;;27.47;44.42;100240.59;4138008;28;20264;-68
2022/09/05 09:46:06;;;;;;;4.03;3.42;;;;;;;27.13;45.14;100212.72;4133699;28;20238;-68
2022/09/05 09:48:19;;;;;;;3.72;3.05;;;;;;;27.25;45.07;100203.28;4138745;28;20940;-67
2022/09/05 09:50:42;;;;;;;4.88;3.17;;;;;;;27.73;44.40;100195.19;4128535;28;20234;-68
2022/09/05 09:53:12;;;;;;;5.07;3.25;;;;;;;28.24;43.24;100185.66;4139448;28;20312;-68
2022/09/05 09:56:08;;;;;;;19.00;4.13;;;;;;;27.68;44.38;100216.22;4135963;28;20261;-68
2022/09/05 09:58:43;;;;;;;5.53;3.00;;;;;;;28.73;43.63;100177.94;4094539;28;20227;-68
2022/09/05 10:00:52;;;;;;;3.05;2.65;;;;;;;28.16;43.18;100193.31;4139573;28;20221;-68
2022/09/05 10:03:15;;;;;;;4.10;3.05;;;;;;;28.09;43.20;100213.72;4131845;28;20653;-68
2022/09/05 10:05:40;;;;;;;3.60;3.25;;;;;;;28.70;42.70;100186.69;4130879;28;20247;-68
2022/09/05 10:08:26;;;;;;;2.90;2.60;;;;;;;28.08;42.87;100217.56;4136150;28;20320;-68
2022/09/05 10:11:02;;;;;;;6.13;3.92;;;;;;;29.96;40.59;100189.97;4129116;28;20317;-68
2022/09/05 10:13:40;;;;;;;3.58;2.45;;;;;;;29.29;41.96;100204.59;4135109;28;20283;-68
2022/09/05 10:16:19;;;;;;;4.05;2.90;;;;;;;29.64;41.53;100188.38;4138643;28;20307;-68
2022/09/05 10:18:42;;;;;;;4.45;3.00;;;;;;;29.48;42.04;100204.84;4124881;28;20233;-68
2022/09/05 10:20:46;;;;;;;4.43;2.97;;;;;;;29.14;43.50;100193.59;4137148;28;20233;-68
2022/09/05 10:23:08;;;;;;;6.38;2.67;;;;;;;29.35;42.95;100185.41;4135743;28;20325;-68
2022/09/05 10:25:28;;;;;;;3.83;2.83;;;;;;;29.99;41.24;100183.94;4133965;28;20268;-68
2022/09/05 10:27:45;;;;;;;4.43;2.63;;;;;;;28.46;42.45;100216.41;4131816;28;20590;-68
2022/09/05 10:30:05;;;;;;;3.45;2.53;;;;;;;29.20;41.04;100200.75;4135213;28;20591;-68
2022/09/05 10:32:14;;;;;;;3.67;2.88;;;;;;;29.19;41.94;100182.63;4135345;28;20225;-68
2022/09/05 10:34:55;;;;;;;3.53;2.65;;;;;;;29.09;42.01;100185.38;4137074;28;20709;-68
2022/09/05 10:37:17;;;;;;;3.60;2.75;;;;;;;29.19;42.77;100179.91;4138069;28;20237;-68
2022/09/05 10:39:28;;;;;;;3.08;2.75;;;;;;;30.09;41.26;100156.50;4136692;28;20784;-68
2022/09/05 10:41:48;;;;;;;4.93;2.67;;;;;;;29.40;41.93;100188.13;4139075;28;20969;-68
2022/09/05 10:44:01;;;;;;;9.77;3.13;;;;;;;28.66;42.32;100196.50;4130639;28;20225;-68
2022/09/05 10:46:21;;;;;;;3.38;2.75;;;;;;;29.28;42.13;100178.28;4138557;28;20283;-68
2022/09/05 10:48:50;;;;;;;4.22;3.03;;;;;;;29.81;41.38;100186.19;4136257;28;20799;-68
2022/09/05 10:51:14;;;;;;;4.03;3.15;;;;;;;29.65;41.36;100184.56;4139128;28;20255;-68
2022/09/05 10:53:39;;;;;;;4.38;3.50;;;;;;;30.16;41.27;100169.91;4140272;28;20241;-68
2022/09/05 10:55:53;;;;;;;4.88;3.03;;;;;;;29.19;42.58;100174.44;4136501;28;20234;-68
2022/09/05 10:58:17;;;;;;;4.82;3.40;;;;;;;30.93;39.46;100134.66;4134913;28;20236;-68
2022/09/05 11:03:31;;;;;;;4.85;2.63;;;;;;;30.01;40.56;100154.31;4214396;27;21089;-67
2022/09/05 11:05:37;;;;;;;5.53;3.05;;;;;;;30.33;40.11;100147.66;4213986;27;20287;-67